createdAt,value
2023-06-07T00:01:06.899Z,60.66
2023-06-07T00:03:42.320Z,60.46
2023-06-07T00:06:12.432Z,61.51
2023-06-07T00:08:44.320Z,61.30
2023-06-07T00:11:13.775Z,62.92
2023-06-07T00:13:42.797Z,61.60
2023-06-07T00:16:13.306Z,63.39
2023-06-07T00:18:42.647Z,61.79
2023-06-07T00:21:12.173Z,60.25
2023-06-07T00:23:42.689Z,60.14
2023-06-07T00:26:12.094Z,60.60
2023-06-07T00:28:42.723Z,59.63
2023-06-07T00:31:12.189Z,60.82
2023-06-07T00:33:41.236Z,62.60
2023-06-07T00:36:10.671Z,61.55
2023-06-07T00:38:39.722Z,63.01
2023-06-07T00:41:10.507Z,62.93
2023-06-07T00:43:39.649Z,61.29
2023-06-07T00:46:09.466Z,60.81
2023-06-07T00:48:38.823Z,61.91
2023-06-07T00:51:08.439Z,61.08
2023-06-07T00:53:38.173Z,60.98
2023-06-07T00:56:07.872Z,61.21
2023-06-07T00:58:39.846Z,62.14
2023-06-07T01:01:09.356Z,61.78
2023-06-07T01:03:39.516Z,61.93
2023-06-07T01:06:09.477Z,62.08
2023-06-07T01:08:39.408Z,62.75
2023-06-07T01:11:11.165Z,63.27
2023-06-07T01:13:42.460Z,63.67
2023-06-07T01:16:12.691Z,64.30
2023-06-07T01:18:43.774Z,64.32
2023-06-07T01:21:15.088Z,64.40
2023-06-07T01:23:45.803Z,65.32
2023-06-07T01:26:15.317Z,65.72
2023-06-07T01:28:46.384Z,66.39
2023-06-07T01:31:16.913Z,66.83
2023-06-07T01:33:46.781Z,67.18
2023-06-07T01:36:17.049Z,67.13
2023-06-07T01:38:51.197Z,67.29
2023-06-07T01:41:20.925Z,67.26
2023-06-07T01:43:51.007Z,67.36
2023-06-07T01:46:21.239Z,67.41
2023-06-07T01:48:50.337Z,67.80
2023-06-07T01:51:19.608Z,68.47
2023-06-07T01:53:51.929Z,68.99
2023-06-07T01:56:28.368Z,69.13
2023-06-07T01:59:06.308Z,69.28
2023-06-07T02:01:44.481Z,69.15
2023-06-07T02:04:18.798Z,68.58
2023-06-07T02:06:50.790Z,69.81
2023-06-07T02:09:24.839Z,69.02
2023-06-07T02:11:55.042Z,69.10
2023-06-07T02:14:24.590Z,69.43
2023-06-07T02:16:54.320Z,69.45
2023-06-07T02:19:25.644Z,69.49
2023-06-07T02:21:55.057Z,70.25
2023-06-07T02:24:26.786Z,70.32
2023-06-07T02:26:56.896Z,71.05
2023-06-07T02:29:25.959Z,71.10
2023-06-07T02:31:59.040Z,70.78
2023-06-07T02:34:30.515Z,71.25
2023-06-07T02:37:01.855Z,71.63
2023-06-07T02:39:33.637Z,71.51
2023-06-07T02:42:03.010Z,71.73
2023-06-07T02:44:32.088Z,72.11
2023-06-07T02:47:01.678Z,72.72
2023-06-07T02:49:30.816Z,74.29
2023-06-07T02:52:01.700Z,72.88
2023-06-07T02:54:36.199Z,72.59
2023-06-07T02:57:06.651Z,72.23
2023-06-07T02:59:35.873Z,72.41
2023-06-07T03:02:05.625Z,72.71
2023-06-07T03:04:35.041Z,72.65
2023-06-07T03:07:06.559Z,73.17
2023-06-07T03:09:42.141Z,73.39
2023-06-07T03:12:12.619Z,73.49
2023-06-07T03:14:47.637Z,73.47
2023-06-07T03:17:18.591Z,73.30
2023-06-07T03:19:53.022Z,73.67
2023-06-07T03:22:22.951Z,73.79
2023-06-07T03:24:55.416Z,74.04
2023-06-07T03:27:25.942Z,73.92
2023-06-07T03:30:00.995Z,73.66
2023-06-07T03:32:30.684Z,74.37
2023-06-07T03:34:59.713Z,74.02
2023-06-07T03:37:29.482Z,72.61
2023-06-07T03:39:59.978Z,72.55
2023-06-07T03:42:29.633Z,72.38
2023-06-07T03:44:58.885Z,71.92
2023-06-07T03:47:28.286Z,71.35
2023-06-07T03:49:58.239Z,71.38
2023-06-07T03:52:28.063Z,71.29
2023-06-07T03:54:57.504Z,70.92
2023-06-07T03:57:29.639Z,70.87
2023-06-07T03:59:59.584Z,71.40
2023-06-07T04:02:29.802Z,71.47
2023-06-07T04:04:59.535Z,72.19
2023-06-07T04:07:29.002Z,71.75
2023-06-07T04:09:58.065Z,72.23
2023-06-07T04:12:28.830Z,71.98
2023-06-07T04:14:59.681Z,71.54
2023-06-07T04:17:32.965Z,71.77
2023-06-07T04:20:02.130Z,71.08
2023-06-07T04:22:32.696Z,70.32
2023-06-07T04:25:02.891Z,70.48
2023-06-07T04:27:33.557Z,70.35
2023-06-07T04:30:04.300Z,70.30
2023-06-07T04:32:39.060Z,70.12
2023-06-07T04:35:11.198Z,69.95
2023-06-07T04:37:43.980Z,69.58
2023-06-07T04:40:15.249Z,70.23
2023-06-07T04:42:56.824Z,70.38
2023-06-07T04:45:32.668Z,69.78
2023-06-07T04:48:03.050Z,69.63
2023-06-07T04:50:32.162Z,69.79
2023-06-07T04:53:03.981Z,70.08
2023-06-07T04:55:39.094Z,69.22
2023-06-07T04:58:11.556Z,69.51
2023-06-07T05:00:40.931Z,68.94
2023-06-07T05:03:23.034Z,68.83
2023-06-07T05:05:56.681Z,69.16
2023-06-07T05:08:27.991Z,69.05
2023-06-07T05:10:57.967Z,69.18
2023-06-07T05:13:28.672Z,68.28
2023-06-07T05:16:02.509Z,67.91
2023-06-07T05:18:34.481Z,67.87
2023-06-07T05:21:03.936Z,67.53
2023-06-07T05:23:34.390Z,67.36
2023-06-07T05:26:03.864Z,66.87
2023-06-07T05:28:34.677Z,66.06
2023-06-07T05:31:04.039Z,65.91
2023-06-07T05:33:34.637Z,65.61
2023-06-07T05:36:03.894Z,64.87
2023-06-07T05:38:33.263Z,64.56
2023-06-07T05:41:02.644Z,63.88
2023-06-07T05:43:33.281Z,62.98
2023-06-07T05:46:02.375Z,62.72
2023-06-07T05:48:31.732Z,63.03
2023-06-07T05:51:00.807Z,62.49
2023-06-07T05:53:30.305Z,61.77
2023-06-07T05:55:59.932Z,61.28
2023-06-07T05:58:31.904Z,60.81
2023-06-07T06:01:02.337Z,60.94
2023-06-07T06:03:31.690Z,60.49
2023-06-07T06:06:00.786Z,60.39
2023-06-07T06:08:30.199Z,60.31
2023-06-07T06:10:59.329Z,60.18
2023-06-07T06:13:31.754Z,60.21
2023-06-07T06:16:02.493Z,60.11
2023-06-07T06:18:32.171Z,59.82
2023-06-07T06:21:01.126Z,59.98
2023-06-07T06:23:30.507Z,59.53
2023-06-07T06:25:59.572Z,59.48
2023-06-07T06:28:29.683Z,59.15
2023-06-07T06:30:58.958Z,58.50
2023-06-07T06:33:29.739Z,59.51
2023-06-07T06:35:58.827Z,57.22
2023-06-07T06:38:28.144Z,57.66
2023-06-07T06:40:57.167Z,57.24
2023-06-07T06:43:26.510Z,57.11
2023-06-07T06:46:00.392Z,57.92
2023-06-07T06:48:31.278Z,57.26
2023-06-07T06:51:00.475Z,56.97
2023-06-07T06:53:29.823Z,56.78
2023-06-07T06:55:58.959Z,56.78
2023-06-07T06:58:28.291Z,56.20
2023-06-07T07:00:57.590Z,55.81
2023-06-07T07:03:28.192Z,55.51
2023-06-07T07:05:58.728Z,54.11
2023-06-07T07:08:28.399Z,54.38
2023-06-07T07:10:57.364Z,53.37
2023-06-07T07:13:26.846Z,50.84
2023-06-07T07:15:56.142Z,51.28
2023-06-07T07:18:25.422Z,51.47
2023-06-07T07:20:54.472Z,52.19
2023-06-07T07:23:25.147Z,52.14
2023-06-07T07:25:54.186Z,52.04
2023-06-07T07:28:23.652Z,50.89
2023-06-07T07:30:52.720Z,51.77
2023-06-07T07:33:21.996Z,51.72
2023-06-07T07:35:52.285Z,51.31
2023-06-07T07:38:21.676Z,50.58
2023-06-07T07:40:52.230Z,50.47
2023-06-07T07:43:21.568Z,50.83
2023-06-07T07:45:50.558Z,50.43
2023-06-07T07:48:19.896Z,49.21
2023-06-07T07:50:48.850Z,48.58
2023-06-07T07:53:18.106Z,47.47
2023-06-07T07:55:47.277Z,46.95
2023-06-07T07:58:17.908Z,48.16
2023-06-07T08:00:47.088Z,47.61
2023-06-07T08:03:16.696Z,45.99
2023-06-07T08:05:45.923Z,47.63
2023-06-07T08:08:16.871Z,45.52
2023-06-07T08:10:47.080Z,46.78
2023-06-07T08:13:17.808Z,46.95
2023-06-07T08:15:48.279Z,46.89
2023-06-07T08:18:19.329Z,46.76
2023-06-07T08:20:48.418Z,45.74
2023-06-07T08:23:17.726Z,45.32
2023-06-07T08:25:46.736Z,45.26
2023-06-07T08:28:18.200Z,46.10
2023-06-07T08:30:48.802Z,45.50
2023-06-07T08:33:18.236Z,45.53
2023-06-07T08:35:47.185Z,45.33
2023-06-07T08:38:16.779Z,44.94
2023-06-07T08:40:46.065Z,44.99
2023-06-07T08:43:16.979Z,44.39
2023-06-07T08:45:47.257Z,44.24
2023-06-07T08:48:18.347Z,43.60
2023-06-07T08:50:48.818Z,43.62
2023-06-07T08:53:25.936Z,43.82
2023-06-07T08:55:55.611Z,43.37
2023-06-07T08:58:27.414Z,43.02
2023-06-07T09:00:59.817Z,43.77
2023-06-07T09:03:29.360Z,43.36
2023-06-07T09:05:58.517Z,42.62
2023-06-07T09:08:28.606Z,42.32
2023-06-07T09:10:57.614Z,42.49
2023-06-07T09:13:28.488Z,41.76
2023-06-07T09:15:58.512Z,41.31
2023-06-07T09:18:44.637Z,40.51
2023-06-07T09:21:24.237Z,40.97
2023-06-07T09:23:54.641Z,41.25
2023-06-07T09:26:24.636Z,40.16
2023-06-07T09:28:57.145Z,39.43
2023-06-07T09:31:34.667Z,39.44
2023-06-07T09:34:22.765Z,39.15
2023-06-07T09:36:53.288Z,38.23
2023-06-07T09:39:24.304Z,38.33
2023-06-07T09:41:55.504Z,38.72
2023-06-07T09:44:27.838Z,38.52
2023-06-07T09:46:57.781Z,38.08
2023-06-07T09:49:32.765Z,36.87
2023-06-07T09:52:03.249Z,36.17
2023-06-07T09:54:39.040Z,36.11
2023-06-07T09:57:12.604Z,36.05
2023-06-07T09:59:59.443Z,36.35
2023-06-07T10:02:30.238Z,36.43
2023-06-07T10:05:01.516Z,36.06
2023-06-07T10:07:38.695Z,36.23
2023-06-07T10:10:12.724Z,35.54
2023-06-07T10:12:44.188Z,35.52
2023-06-07T10:15:16.705Z,35.66
2023-06-07T10:17:56.725Z,35.15
2023-06-07T10:20:29.099Z,35.45
2023-06-07T10:23:04.963Z,35.01
2023-06-07T10:25:40.339Z,34.65
2023-06-07T10:28:16.438Z,35.18
2023-06-07T10:30:54.635Z,34.64
2023-06-07T10:33:26.635Z,34.24
2023-06-07T10:35:57.686Z,33.58
2023-06-07T10:38:26.809Z,33.45
2023-06-07T10:40:56.193Z,32.71
2023-06-07T10:43:28.366Z,33.91
2023-06-07T10:46:21.771Z,33.62
2023-06-07T10:48:51.382Z,33.98
2023-06-07T10:51:40.589Z,34.13
2023-06-07T10:54:10.348Z,34.00
2023-06-07T10:56:40.331Z,34.09
2023-06-07T10:59:22.576Z,33.48
2023-06-07T11:01:55.563Z,34.06
2023-06-07T11:04:52.737Z,33.68
2023-06-07T11:07:23.889Z,33.53
2023-06-07T11:10:27.972Z,32.93
2023-06-07T11:12:59.360Z,33.12
2023-06-07T11:15:32.850Z,33.51
2023-06-07T11:18:06.320Z,33.80
2023-06-07T11:20:53.854Z,33.89
2023-06-07T11:23:28.642Z,33.34
2023-06-07T11:26:08.572Z,33.11
2023-06-07T11:28:39.889Z,33.00
2023-06-07T11:31:11.754Z,33.41
2023-06-07T11:33:43.397Z,34.16
2023-06-07T11:36:13.352Z,33.45
2023-06-07T11:38:49.917Z,33.30
2023-06-07T11:41:19.118Z,33.50
2023-06-07T11:43:48.836Z,33.19
2023-06-07T11:46:20.846Z,32.87
2023-06-07T11:48:51.810Z,32.86
2023-06-07T11:51:20.941Z,32.66
2023-06-07T11:53:50.709Z,34.25
2023-06-07T11:56:19.888Z,32.99
2023-06-07T11:58:49.254Z,33.30
2023-06-07T12:01:20.612Z,33.19
2023-06-07T12:03:51.887Z,33.78
2023-06-07T12:06:21.225Z,32.75
2023-06-07T12:08:53.133Z,32.93
2023-06-07T12:11:25.388Z,33.31
2023-06-07T12:13:55.881Z,33.33
2023-06-07T12:16:25.034Z,33.52
2023-06-07T12:18:56.158Z,31.59
2023-06-07T12:21:26.476Z,31.96
2023-06-07T12:23:56.059Z,31.15
2023-06-07T12:26:28.371Z,32.34
2023-06-07T12:29:04.452Z,31.65
2023-06-07T12:31:33.512Z,32.06
2023-06-07T12:34:06.926Z,30.96
2023-06-07T12:36:39.208Z,31.25
2023-06-07T12:39:11.273Z,31.55
2023-06-07T12:41:41.474Z,31.65
2023-06-07T12:44:12.696Z,31.66
2023-06-07T12:46:42.262Z,31.96
2023-06-07T12:49:13.349Z,31.64
2023-06-07T12:51:42.498Z,31.27
2023-06-07T12:54:11.810Z,32.21
2023-06-07T12:56:41.151Z,31.25
2023-06-07T12:59:10.348Z,30.28
2023-06-07T13:01:39.919Z,30.77
2023-06-07T13:04:10.731Z,30.94
2023-06-07T13:06:45.123Z,31.09
2023-06-07T13:09:16.049Z,31.23
2023-06-07T13:11:45.252Z,31.49
2023-06-07T13:14:17.657Z,31.61
2023-06-07T13:16:49.034Z,31.69
2023-06-07T13:19:19.291Z,31.99
2023-06-07T13:21:49.935Z,31.00
2023-06-07T13:24:19.686Z,31.28
2023-06-07T13:26:49.354Z,30.96
2023-06-07T13:29:19.774Z,31.54
2023-06-07T13:31:48.980Z,31.03
2023-06-07T13:34:19.242Z,30.55
2023-06-07T13:36:50.672Z,30.12
2023-06-07T13:39:20.056Z,31.03
2023-06-07T13:41:49.304Z,30.45
2023-06-07T13:44:19.460Z,29.88
2023-06-07T13:46:51.190Z,30.89
2023-06-07T13:49:21.704Z,31.21
2023-06-07T13:51:53.688Z,30.09
2023-06-07T13:54:23.128Z,30.92
2023-06-07T13:56:52.394Z,31.03
2023-06-07T13:59:23.534Z,30.80
2023-06-07T14:04:49.882Z,30.38
2023-06-07T14:07:20.603Z,30.69
2023-06-07T14:09:50.236Z,29.95
2023-06-07T14:12:19.639Z,30.50
2023-06-07T14:14:49.074Z,31.03
2023-06-07T14:17:18.115Z,31.64
2023-06-07T14:19:47.441Z,31.91
2023-06-07T14:22:18.644Z,32.11
2023-06-07T14:24:50.650Z,32.81
2023-06-07T14:27:23.800Z,32.93
2023-06-07T14:29:54.594Z,33.02
2023-06-07T14:32:23.851Z,33.13
2023-06-07T14:34:55.362Z,33.06
2023-06-07T14:37:28.458Z,33.23
2023-06-07T14:40:05.532Z,34.61
2023-06-07T14:42:37.785Z,34.62
2023-06-07T14:45:10.349Z,35.60
2023-06-07T14:47:42.360Z,35.35
2023-06-07T14:50:13.408Z,36.05
2023-06-07T14:52:47.660Z,36.55
2023-06-07T14:55:21.109Z,36.38
2023-06-07T14:57:51.369Z,37.04
2023-06-07T15:00:21.824Z,36.60
2023-06-07T15:02:53.653Z,37.01
2023-06-07T15:05:26.278Z,37.32
2023-06-07T15:07:55.434Z,37.25
2023-06-07T15:10:27.842Z,37.20
2023-06-07T15:13:01.657Z,37.71
2023-06-07T15:15:35.849Z,37.70
2023-06-07T15:18:09.009Z,37.97
2023-06-07T15:20:38.417Z,37.96
2023-06-07T15:23:07.436Z,38.28
2023-06-07T15:25:40.071Z,37.77
2023-06-07T15:28:10.161Z,38.67
2023-06-07T15:30:40.692Z,37.47
2023-06-07T15:33:10.883Z,36.64
2023-06-07T15:35:42.263Z,37.33
2023-06-07T15:38:14.665Z,37.72
2023-06-07T15:40:48.488Z,37.71
2023-06-07T15:43:19.733Z,37.72
2023-06-07T15:45:51.407Z,38.29
2023-06-07T15:48:20.982Z,38.37
2023-06-07T15:50:52.709Z,38.39
2023-06-07T15:53:22.845Z,39.13
2023-06-07T15:55:55.508Z,39.10
2023-06-07T15:58:25.289Z,39.12
2023-06-07T16:00:55.863Z,39.03
2023-06-07T16:03:25.471Z,39.11
2023-06-07T16:05:54.936Z,39.04
2023-06-07T16:08:26.729Z,38.74
2023-06-07T16:10:59.665Z,39.88
2023-06-07T16:13:29.860Z,39.99
2023-06-07T16:16:02.523Z,39.50
2023-06-07T16:18:33.500Z,38.65
2023-06-07T16:21:03.766Z,38.55
2023-06-07T16:23:32.892Z,38.92
2023-06-07T16:26:03.714Z,38.96
2023-06-07T16:28:35.544Z,39.13
2023-06-07T16:31:05.724Z,39.24
2023-06-07T16:33:34.815Z,38.81
2023-06-07T16:36:07.347Z,38.35
2023-06-07T16:38:37.397Z,38.06
2023-06-07T16:41:08.838Z,38.69
2023-06-07T16:43:38.866Z,38.87
2023-06-07T16:46:09.671Z,39.38
2023-06-07T16:48:39.088Z,39.37
2023-06-07T16:51:09.332Z,40.24
2023-06-07T16:53:39.224Z,39.85
2023-06-07T16:56:10.412Z,40.69
2023-06-07T16:58:40.627Z,41.03
2023-06-07T17:01:11.656Z,41.29
2023-06-07T17:03:41.066Z,41.33
2023-06-07T17:06:10.671Z,41.99
2023-06-07T17:08:39.747Z,41.76
2023-06-07T17:11:11.417Z,41.95
2023-06-07T17:13:46.177Z,43.03
2023-06-07T17:16:16.784Z,42.82
2023-06-07T17:18:46.413Z,42.87
2023-06-07T17:21:15.940Z,43.30
2023-06-07T17:23:45.386Z,43.65
2023-06-07T17:26:15.908Z,44.30
2023-06-07T17:28:44.948Z,44.36
2023-06-07T17:31:14.266Z,44.47
2023-06-07T17:33:45.752Z,44.63
2023-06-07T17:36:15.696Z,45.44
2023-06-07T17:38:48.624Z,45.15
2023-06-07T17:41:21.852Z,46.77
2023-06-07T17:43:52.517Z,47.25
2023-06-07T17:46:22.855Z,47.38
2023-06-07T17:48:52.065Z,47.50
2023-06-07T17:51:22.986Z,48.09
2023-06-07T17:53:52.391Z,48.88
2023-06-07T17:56:24.640Z,48.61
2023-06-07T17:58:53.765Z,50.23
2023-06-07T18:01:23.509Z,50.04
2023-06-07T18:03:57.893Z,51.29
2023-06-07T18:06:27.791Z,51.52
2023-06-07T18:08:57.112Z,51.86
2023-06-07T18:11:28.174Z,52.38
2023-06-07T18:13:57.425Z,52.51
2023-06-07T18:16:26.971Z,52.74
2023-06-07T18:18:56.121Z,52.53
2023-06-07T18:21:25.479Z,53.33
2023-06-07T18:23:54.559Z,52.00
2023-06-07T18:26:23.960Z,52.92
2023-06-07T18:28:54.760Z,52.24
2023-06-07T18:31:24.235Z,52.49
2023-06-07T18:33:53.329Z,52.69
2023-06-07T18:36:22.774Z,53.00
2023-06-07T18:38:51.833Z,52.97
2023-06-07T18:41:22.031Z,54.03
2023-06-07T18:43:53.138Z,54.11
2023-06-07T18:46:22.965Z,53.45
2023-06-07T18:48:52.230Z,54.24
2023-06-07T18:51:21.751Z,54.72
2023-06-07T18:53:51.711Z,54.96
2023-06-07T18:56:22.833Z,54.82
2023-06-07T18:58:53.329Z,55.32
2023-06-07T19:01:29.461Z,54.99
2023-06-07T19:04:05.068Z,55.00
2023-06-07T19:06:36.117Z,54.66
2023-06-07T19:09:06.391Z,54.69
2023-06-07T19:11:36.869Z,55.05
2023-06-07T19:14:08.177Z,56.04
2023-06-07T19:16:37.701Z,55.40
2023-06-07T19:19:06.894Z,55.14
2023-06-07T19:21:36.742Z,56.16
2023-06-07T19:24:06.384Z,55.31
2023-06-07T19:26:35.676Z,56.08
2023-06-07T19:29:06.067Z,56.52
2023-06-07T19:31:35.587Z,56.89
2023-06-07T19:34:06.922Z,55.83
2023-06-07T19:36:38.173Z,56.40
2023-06-07T19:39:08.565Z,56.72
2023-06-07T19:41:40.953Z,57.97
2023-06-07T19:44:11.975Z,58.03
2023-06-07T19:46:41.517Z,57.34
2023-06-07T19:49:10.674Z,58.43
2023-06-07T19:51:40.786Z,58.31
2023-06-07T19:54:11.447Z,59.01
2023-06-07T19:56:42.214Z,57.60
2023-06-07T19:59:12.729Z,58.78
2023-06-07T20:01:42.202Z,58.64
2023-06-07T20:04:12.694Z,59.35
2023-06-07T20:06:42.323Z,59.87
2023-06-07T20:09:11.911Z,58.50
2023-06-07T20:11:41.312Z,59.24
2023-06-07T20:14:13.417Z,59.39
2023-06-07T20:16:42.841Z,59.22
2023-06-07T20:19:11.852Z,59.32
2023-06-07T20:21:42.310Z,60.18
2023-06-07T20:24:13.937Z,60.09
2023-06-07T20:26:44.575Z,59.22
2023-06-07T20:29:15.547Z,60.72
2023-06-07T20:31:46.226Z,59.96
2023-06-07T20:34:16.416Z,58.66
2023-06-07T20:36:46.478Z,58.75
2023-06-07T20:39:15.609Z,58.49
2023-06-07T20:41:44.979Z,58.47
2023-06-07T20:44:15.553Z,58.35
2023-06-07T20:46:44.943Z,58.33
2023-06-07T20:49:14.131Z,58.56
2023-06-07T20:51:43.504Z,58.72
2023-06-07T20:54:12.489Z,58.85
2023-06-07T20:56:41.800Z,59.39
2023-06-07T20:59:11.041Z,59.64
2023-06-07T21:01:41.877Z,60.01
2023-06-07T21:04:11.250Z,60.35
2023-06-07T21:06:40.746Z,61.06
2023-06-07T21:09:09.727Z,61.86
2023-06-07T21:11:39.043Z,61.20
2023-06-07T21:14:08.119Z,61.35
2023-06-07T21:16:37.429Z,61.11
2023-06-07T21:19:07.927Z,61.07
2023-06-07T21:21:37.816Z,61.02
2023-06-07T21:24:07.445Z,61.08
2023-06-07T21:26:36.716Z,61.08
2023-06-07T21:29:08.382Z,61.16
2023-06-07T21:31:39.598Z,60.92
2023-06-07T21:34:12.183Z,61.28
2023-06-07T21:36:41.736Z,61.22
2023-06-07T21:39:10.724Z,61.33
2023-06-07T21:41:41.586Z,61.45
2023-06-07T21:44:10.692Z,61.30
2023-06-07T21:46:40.023Z,63.47
2023-06-07T21:49:10.518Z,62.55
2023-06-07T21:51:40.979Z,62.18
2023-06-07T21:54:09.997Z,62.17
2023-06-07T21:56:39.339Z,63.24
2023-06-07T21:59:08.496Z,62.43
2023-06-07T22:01:37.896Z,62.55
2023-06-07T22:04:07.369Z,62.64
2023-06-07T22:06:38.066Z,62.78
2023-06-07T22:09:07.444Z,63.00
2023-06-07T22:11:42.281Z,62.85
2023-06-07T22:14:14.520Z,62.84
2023-06-07T22:16:47.370Z,62.99
2023-06-07T22:19:20.370Z,62.99
2023-06-07T22:21:53.750Z,62.96
2023-06-07T22:24:23.039Z,63.20
2023-06-07T22:26:52.353Z,63.04
2023-06-07T22:29:22.063Z,64.00
2023-06-07T22:31:51.670Z,63.22
2023-06-07T22:34:22.519Z,62.87
2023-06-07T22:36:55.134Z,62.88
2023-06-07T22:39:24.318Z,64.15
2023-06-07T22:41:53.613Z,63.28
2023-06-07T22:44:22.687Z,65.59
2023-06-07T22:46:52.610Z,67.08
2023-06-07T22:49:22.086Z,66.88
2023-06-07T22:51:54.687Z,66.61
2023-06-07T22:54:24.956Z,64.57
2023-06-07T22:56:54.313Z,64.77
2023-06-07T22:59:23.909Z,64.53
2023-06-07T23:01:55.121Z,64.61
2023-06-07T23:04:24.632Z,66.08
2023-06-07T23:06:55.342Z,64.63
2023-06-07T23:09:24.439Z,64.58
2023-06-07T23:11:54.191Z,65.15
2023-06-07T23:14:23.353Z,65.61
2023-06-07T23:16:52.706Z,66.46
2023-06-07T23:19:21.915Z,66.94
2023-06-07T23:21:51.209Z,66.97
2023-06-07T23:24:22.808Z,67.08
2023-06-07T23:26:53.363Z,67.35
2023-06-07T23:29:22.931Z,67.70
2023-06-07T23:31:52.304Z,68.13
2023-06-07T23:34:24.282Z,68.08
2023-06-07T23:36:54.872Z,68.31
2023-06-07T23:39:25.234Z,68.77
2023-06-07T23:41:55.809Z,69.06
2023-06-07T23:44:27.328Z,69.25
2023-06-07T23:46:57.389Z,69.83
2023-06-07T23:49:32.567Z,69.84
2023-06-07T23:52:02.033Z,70.22
2023-06-07T23:54:32.578Z,70.38
2023-06-07T23:57:02.336Z,70.74
2023-06-07T23:59:31.327Z,71.00
